sensor_id;sensor_type;location;lat;lon;timestamp;pressure;altitude;pressure_sealevel;temperature;humidity
80781;BME280;70341;56.408;10.874;2024-02-21T00:01:22;101102.14;;;19.83;41.68
80781;BME280;70341;56.408;10.874;2024-02-21T00:03:52;101097.36;;;19.82;41.70
80781;BME280;70341;56.408;10.874;2024-02-21T00:06:20;101098.48;;;19.82;41.76
80781;BME280;70341;56.408;10.874;2024-02-21T00:08:51;101100.14;;;19.81;41.66
80781;BME280;70341;56.408;10.874;2024-02-21T00:11:19;101093.33;;;19.81;41.68
80781;BME280;70341;56.408;10.874;2024-02-21T00:13:49;101086.68;;;19.80;41.66
80781;BME280;70341;56.408;10.874;2024-02-21T00:16:17;101083.29;;;19.79;41.69
80781;BME280;70341;56.408;10.874;2024-02-21T00:18:47;101076.45;;;19.79;41.70
80781;BME280;70341;56.408;10.874;2024-02-21T00:21:16;101070.02;;;19.78;41.67
80781;BME280;70341;56.408;10.874;2024-02-21T00:23:46;101059.04;;;19.78;41.62
80781;BME280;70341;56.408;10.874;2024-02-21T00:26:15;101044.14;;;19.77;41.72
80781;BME280;70341;56.408;10.874;2024-02-21T00:28:44;101035.70;;;19.77;41.66
80781;BME280;70341;56.408;10.874;2024-02-21T00:31:13;101020.44;;;19.76;41.72
80781;BME280;70341;56.408;10.874;2024-02-21T00:33:42;101010.88;;;19.76;41.63
80781;BME280;70341;56.408;10.874;2024-02-21T00:36:11;100999.18;;;19.75;41.59
80781;BME280;70341;56.408;10.874;2024-02-21T00:38:40;100990.38;;;19.75;41.64
80781;BME280;70341;56.408;10.874;2024-02-21T00:41:09;100986.77;;;19.75;41.68
80781;BME280;70341;56.408;10.874;2024-02-21T00:43:40;100982.33;;;19.74;41.66
80781;BME280;70341;56.408;10.874;2024-02-21T00:46:09;100975.64;;;19.74;41.64
80781;BME280;70341;56.408;10.874;2024-02-21T00:48:38;100970.42;;;19.74;41.65
80781;BME280;70341;56.408;10.874;2024-02-21T00:51:07;100968.85;;;19.73;41.69
80781;BME280;70341;56.408;10.874;2024-02-21T00:53:37;100957.01;;;19.72;41.74
80781;BME280;70341;56.408;10.874;2024-02-21T00:56:05;100950.70;;;19.72;41.81
80781;BME280;70341;56.408;10.874;2024-02-21T00:58:35;100943.37;;;19.72;41.76
80781;BME280;70341;56.408;10.874;2024-02-21T01:01:03;100941.58;;;19.71;41.78
80781;BME280;70341;56.408;10.874;2024-02-21T01:03:33;100932.95;;;19.71;41.92
80781;BME280;70341;56.408;10.874;2024-02-21T01:06:02;100930.30;;;19.71;41.96
80781;BME280;70341;56.408;10.874;2024-02-21T01:08:31;100929.23;;;19.70;41.96
80781;BME280;70341;56.408;10.874;2024-02-21T01:10:59;100919.52;;;19.70;42.00
80781;BME280;70341;56.408;10.874;2024-02-21T01:13:29;100915.81;;;19.69;41.99
80781;BME280;70341;56.408;10.874;2024-02-21T01:15:58;100906.11;;;19.68;42.09
80781;BME280;70341;56.408;10.874;2024-02-21T01:18:27;100900.37;;;19.68;42.20
80781;BME280;70341;56.408;10.874;2024-02-21T01:20:56;100886.15;;;19.68;42.20
80781;BME280;70341;56.408;10.874;2024-02-21T01:23:26;100880.94;;;19.68;42.23
80781;BME280;70341;56.408;10.874;2024-02-21T01:25:55;100874.85;;;19.67;42.35
80781;BME280;70341;56.408;10.874;2024-02-21T01:28:24;100872.67;;;19.67;42.37
80781;BME280;70341;56.408;10.874;2024-02-21T01:30:53;100866.21;;;19.67;42.49
80781;BME280;70341;56.408;10.874;2024-02-21T01:33:23;100862.10;;;19.66;42.56
80781;BME280;70341;56.408;10.874;2024-02-21T01:35:52;100863.77;;;19.66;42.59
80781;BME280;70341;56.408;10.874;2024-02-21T01:38:22;100857.44;;;19.66;42.48
80781;BME280;70341;56.408;10.874;2024-02-21T01:40:50;100848.97;;;19.66;42.49
80781;BME280;70341;56.408;10.874;2024-02-21T01:43:21;100845.03;;;19.65;42.59
80781;BME280;70341;56.408;10.874;2024-02-21T01:45:53;100846.45;;;19.66;42.42
80781;BME280;70341;56.408;10.874;2024-02-21T01:48:24;100834.73;;;19.66;42.49
80781;BME280;70341;56.408;10.874;2024-02-21T01:50:54;100824.23;;;19.66;42.52
80781;BME280;70341;56.408;10.874;2024-02-21T01:53:30;100807.33;;;19.66;42.48
80781;BME280;70341;56.408;10.874;2024-02-21T01:56:03;100803.15;;;19.66;42.55
80781;BME280;70341;56.408;10.874;2024-02-21T01:58:36;100795.00;;;19.67;42.43
80781;BME280;70341;56.408;10.874;2024-02-21T02:01:06;100791.23;;;19.67;42.41
80781;BME280;70341;56.408;10.874;2024-02-21T02:03:34;100786.50;;;19.67;42.42
80781;BME280;70341;56.408;10.874;2024-02-21T02:06:07;100782.64;;;19.68;42.41
80781;BME280;70341;56.408;10.874;2024-02-21T02:08:35;100786.89;;;19.69;42.47
80781;BME280;70341;56.408;10.874;2024-02-21T02:11:05;100791.03;;;19.69;42.44
80781;BME280;70341;56.408;10.874;2024-02-21T02:13:34;100782.33;;;19.70;42.47
80781;BME280;70341;56.408;10.874;2024-02-21T02:16:04;100774.02;;;19.70;42.53
80781;BME280;70341;56.408;10.874;2024-02-21T02:18:32;100766.91;;;19.71;42.51
80781;BME280;70341;56.408;10.874;2024-02-21T02:21:10;100759.48;;;19.71;42.66
80781;BME280;70341;56.408;10.874;2024-02-21T02:23:43;100759.46;;;19.72;42.50
80781;BME280;70341;56.408;10.874;2024-02-21T02:26:11;100755.65;;;19.72;42.52
80781;BME280;70341;56.408;10.874;2024-02-21T02:28:40;100752.33;;;19.73;42.61
80781;BME280;70341;56.408;10.874;2024-02-21T02:31:09;100748.38;;;19.72;42.65
80781;BME280;70341;56.408;10.874;2024-02-21T02:33:39;100742.71;;;19.73;42.68
80781;BME280;70341;56.408;10.874;2024-02-21T02:36:08;100740.52;;;19.74;42.47
80781;BME280;70341;56.408;10.874;2024-02-21T02:38:38;100740.92;;;19.73;42.46
80781;BME280;70341;56.408;10.874;2024-02-21T02:41:06;100739.42;;;19.74;42.54
80781;BME280;70341;56.408;10.874;2024-02-21T02:43:36;100737.11;;;19.74;42.51
80781;BME280;70341;56.408;10.874;2024-02-21T02:46:05;100732.41;;;19.74;42.59
80781;BME280;70341;56.408;10.874;2024-02-21T02:48:35;100730.80;;;19.74;42.58
80781;BME280;70341;56.408;10.874;2024-02-21T02:51:04;100728.11;;;19.73;42.52
80781;BME280;70341;56.408;10.874;2024-02-21T02:53:33;100729.17;;;19.74;42.60
80781;BME280;70341;56.408;10.874;2024-02-21T02:56:02;100728.11;;;19.74;42.56
80781;BME280;70341;56.408;10.874;2024-02-21T02:58:31;100727.59;;;19.73;42.65
80781;BME280;70341;56.408;10.874;2024-02-21T03:01:00;100726.66;;;19.74;42.71
80781;BME280;70341;56.408;10.874;2024-02-21T03:03:29;100731.04;;;19.73;42.61
80781;BME280;70341;56.408;10.874;2024-02-21T03:05:58;100728.18;;;19.72;42.66
80781;BME280;70341;56.408;10.874;2024-02-21T03:08:28;100731.80;;;19.73;42.59
80781;BME280;70341;56.408;10.874;2024-02-21T03:10:57;100733.30;;;19.72;42.69
80781;BME280;70341;56.408;10.874;2024-02-21T03:13:27;100734.76;;;19.72;42.73
80781;BME280;70341;56.408;10.874;2024-02-21T03:15:55;100726.27;;;19.72;42.66
80781;BME280;70341;56.408;10.874;2024-02-21T03:18:26;100725.95;;;19.71;42.68
80781;BME280;70341;56.408;10.874;2024-02-21T03:20:54;100721.64;;;19.71;42.71
80781;BME280;70341;56.408;10.874;2024-02-21T03:23:24;100724.34;;;19.71;42.74
80781;BME280;70341;56.408;10.874;2024-02-21T03:25:52;100715.70;;;19.71;42.72
80781;BME280;70341;56.408;10.874;2024-02-21T03:28:22;100718.10;;;19.70;42.80
80781;BME280;70341;56.408;10.874;2024-02-21T03:30:51;100713.83;;;19.70;42.82
80781;BME280;70341;56.408;10.874;2024-02-21T03:33:20;100717.02;;;19.70;42.75
80781;BME280;70341;56.408;10.874;2024-02-21T03:35:49;100710.19;;;19.70;42.74
80781;BME280;70341;56.408;10.874;2024-02-21T03:38:20;100712.75;;;19.69;42.77
80781;BME280;70341;56.408;10.874;2024-02-21T03:40:48;100711.15;;;19.69;42.80
80781;BME280;70341;56.408;10.874;2024-02-21T03:43:18;100714.39;;;19.69;42.83
80781;BME280;70341;56.408;10.874;2024-02-21T03:45:47;100720.34;;;19.69;42.87
80781;BME280;70341;56.408;10.874;2024-02-21T03:48:17;100720.54;;;19.69;42.74
80781;BME280;70341;56.408;10.874;2024-02-21T03:50:46;100722.02;;;19.68;42.81
80781;BME280;70341;56.408;10.874;2024-02-21T03:53:16;100717.17;;;19.68;42.75
80781;BME280;70341;56.408;10.874;2024-02-21T03:55:45;100713.02;;;19.68;42.84
80781;BME280;70341;56.408;10.874;2024-02-21T03:58:14;100705.27;;;19.68;42.80
80781;BME280;70341;56.408;10.874;2024-02-21T04:00:43;100699.38;;;19.68;42.72
80781;BME280;70341;56.408;10.874;2024-02-21T04:03:13;100686.42;;;19.67;42.66
80781;BME280;70341;56.408;10.874;2024-02-21T04:05:42;100686.93;;;19.68;42.63
80781;BME280;70341;56.408;10.874;2024-02-21T04:08:11;100684.45;;;19.67;42.69
80781;BME280;70341;56.408;10.874;2024-02-21T04:10:40;100684.70;;;19.66;42.65
80781;BME280;70341;56.408;10.874;2024-02-21T04:13:10;100680.21;;;19.66;42.59
80781;BME280;70341;56.408;10.874;2024-02-21T04:15:38;100681.04;;;19.67;42.56
80781;BME280;70341;56.408;10.874;2024-02-21T04:18:09;100677.48;;;19.66;42.53
80781;BME280;70341;56.408;10.874;2024-02-21T04:20:37;100667.95;;;19.66;42.50
80781;BME280;70341;56.408;10.874;2024-02-21T04:23:08;100658.56;;;19.66;42.37
80781;BME280;70341;56.408;10.874;2024-02-21T04:25:36;100656.06;;;19.66;42.38
80781;BME280;70341;56.408;10.874;2024-02-21T04:28:06;100651.20;;;19.66;42.43
80781;BME280;70341;56.408;10.874;2024-02-21T04:30:34;100645.08;;;19.66;42.45
80781;BME280;70341;56.408;10.874;2024-02-21T04:33:05;100644.73;;;19.65;42.46
80781;BME280;70341;56.408;10.874;2024-02-21T04:35:36;100643.49;;;19.65;42.42
80781;BME280;70341;56.408;10.874;2024-02-21T04:38:06;100650.00;;;19.65;42.46
80781;BME280;70341;56.408;10.874;2024-02-21T04:40:34;100645.23;;;19.64;42.57
80781;BME280;70341;56.408;10.874;2024-02-21T04:43:04;100653.96;;;19.63;42.40
80781;BME280;70341;56.408;10.874;2024-02-21T04:45:33;100663.21;;;19.62;42.65
80781;BME280;70341;56.408;10.874;2024-02-21T04:48:04;100667.42;;;19.61;42.48
80781;BME280;70341;56.408;10.874;2024-02-21T04:50:32;100669.33;;;19.60;42.60
80781;BME280;70341;56.408;10.874;2024-02-21T04:53:02;100672.28;;;19.59;42.65
80781;BME280;70341;56.408;10.874;2024-02-21T04:55:31;100674.71;;;19.58;42.64
80781;BME280;70341;56.408;10.874;2024-02-21T04:58:02;100672.29;;;19.57;42.60
80781;BME280;70341;56.408;10.874;2024-02-21T05:00:30;100677.40;;;19.56;42.64
80781;BME280;70341;56.408;10.874;2024-02-21T05:03:00;100664.86;;;19.55;42.72
80781;BME280;70341;56.408;10.874;2024-02-21T05:05:29;100660.04;;;19.54;42.75
80781;BME280;70341;56.408;10.874;2024-02-21T05:07:59;100652.89;;;19.54;42.76
80781;BME280;70341;56.408;10.874;2024-02-21T05:10:27;100659.08;;;19.52;42.73
80781;BME280;70341;56.408;10.874;2024-02-21T05:12:58;100658.44;;;19.52;42.74
80781;BME280;70341;56.408;10.874;2024-02-21T05:15:26;100647.66;;;19.51;42.78
80781;BME280;70341;56.408;10.874;2024-02-21T05:17:55;100647.95;;;19.50;42.66
80781;BME280;70341;56.408;10.874;2024-02-21T05:20:24;100649.22;;;19.50;42.69
80781;BME280;70341;56.408;10.874;2024-02-21T05:22:54;100650.92;;;19.49;42.59
80781;BME280;70341;56.408;10.874;2024-02-21T05:25:22;100644.80;;;19.49;42.57
80781;BME280;70341;56.408;10.874;2024-02-21T05:27:52;100644.89;;;19.47;42.61
80781;BME280;70341;56.408;10.874;2024-02-21T05:30:20;100652.66;;;19.47;42.59
80781;BME280;70341;56.408;10.874;2024-02-21T05:32:50;100649.64;;;19.47;42.52
80781;BME280;70341;56.408;10.874;2024-02-21T05:35:19;100650.23;;;19.46;42.73
80781;BME280;70341;56.408;10.874;2024-02-21T05:37:48;100660.33;;;19.46;42.58
80781;BME280;70341;56.408;10.874;2024-02-21T05:40:17;100663.48;;;19.45;42.69
80781;BME280;70341;56.408;10.874;2024-02-21T05:42:46;100669.82;;;19.44;42.66
80781;BME280;70341;56.408;10.874;2024-02-21T05:45:15;100667.88;;;19.44;42.69
80781;BME280;70341;56.408;10.874;2024-02-21T05:47:45;100659.25;;;19.43;42.66
80781;BME280;70341;56.408;10.874;2024-02-21T05:50:14;100652.08;;;19.43;42.72
80781;BME280;70341;56.408;10.874;2024-02-21T05:52:44;100648.68;;;19.43;42.74
80781;BME280;70341;56.408;10.874;2024-02-21T05:55:12;100646.20;;;19.42;42.73
80781;BME280;70341;56.408;10.874;2024-02-21T05:57:42;100649.47;;;19.42;42.72
80781;BME280;70341;56.408;10.874;2024-02-21T06:00:11;100653.74;;;19.42;42.67
80781;BME280;70341;56.408;10.874;2024-02-21T06:02:41;100656.48;;;19.42;42.85
80781;BME280;70341;56.408;10.874;2024-02-21T06:05:10;100664.36;;;19.43;42.80
80781;BME280;70341;56.408;10.874;2024-02-21T06:07:39;100666.52;;;19.43;42.79
80781;BME280;70341;56.408;10.874;2024-02-21T06:10:09;100666.38;;;19.42;42.84
80781;BME280;70341;56.408;10.874;2024-02-21T06:12:38;100674.69;;;19.42;42.83
80781;BME280;70341;56.408;10.874;2024-02-21T06:15:07;100678.52;;;19.41;42.87
80781;BME280;70341;56.408;10.874;2024-02-21T06:17:37;100682.64;;;19.42;42.88
80781;BME280;70341;56.408;10.874;2024-02-21T06:20:06;100681.17;;;19.42;42.96
80781;BME280;70341;56.408;10.874;2024-02-21T06:22:36;100680.65;;;19.42;42.91
80781;BME280;70341;56.408;10.874;2024-02-21T06:25:04;100676.52;;;19.42;42.86
80781;BME280;70341;56.408;10.874;2024-02-21T06:27:34;100684.81;;;19.42;42.84
80781;BME280;70341;56.408;10.874;2024-02-21T06:30:03;100680.29;;;19.42;42.84
80781;BME280;70341;56.408;10.874;2024-02-21T06:32:32;100685.33;;;19.42;42.87
80781;BME280;70341;56.408;10.874;2024-02-21T06:35:01;100674.56;;;19.41;42.84
80781;BME280;70341;56.408;10.874;2024-02-21T06:37:30;100675.42;;;19.42;42.83
80781;BME280;70341;56.408;10.874;2024-02-21T06:40:00;100678.84;;;19.42;43.01
80781;BME280;70341;56.408;10.874;2024-02-21T06:42:29;100675.77;;;19.42;42.95
80781;BME280;70341;56.408;10.874;2024-02-21T06:44:58;100669.58;;;19.43;43.01
80781;BME280;70341;56.408;10.874;2024-02-21T06:47:28;100672.08;;;19.43;43.15
80781;BME280;70341;56.408;10.874;2024-02-21T06:49:56;100665.95;;;19.43;43.06
80781;BME280;70341;56.408;10.874;2024-02-21T06:52:26;100667.34;;;19.44;42.97
80781;BME280;70341;56.408;10.874;2024-02-21T06:54:54;100668.95;;;19.44;42.95
80781;BME280;70341;56.408;10.874;2024-02-21T06:57:25;100669.67;;;19.44;42.99
80781;BME280;70341;56.408;10.874;2024-02-21T06:59:53;100675.80;;;19.44;43.06
80781;BME280;70341;56.408;10.874;2024-02-21T07:02:23;100674.71;;;19.44;43.03
80781;BME280;70341;56.408;10.874;2024-02-21T07:04:51;100675.80;;;19.44;42.98
80781;BME280;70341;56.408;10.874;2024-02-21T07:07:21;100674.70;;;19.44;42.96
80781;BME280;70341;56.408;10.874;2024-02-21T07:09:50;100674.17;;;19.44;43.12
80781;BME280;70341;56.408;10.874;2024-02-21T07:12:20;100677.78;;;19.44;43.07
80781;BME280;70341;56.408;10.874;2024-02-21T07:14:48;100680.84;;;19.44;43.00
80781;BME280;70341;56.408;10.874;2024-02-21T07:17:19;100680.24;;;19.44;43.08
80781;BME280;70341;56.408;10.874;2024-02-21T07:19:47;100679.34;;;19.45;43.11
80781;BME280;70341;56.408;10.874;2024-02-21T07:22:18;100682.03;;;19.45;43.00
80781;BME280;70341;56.408;10.874;2024-02-21T07:24:46;100676.99;;;19.45;42.99
80781;BME280;70341;56.408;10.874;2024-02-21T07:27:17;100673.53;;;19.45;42.97
80781;BME280;70341;56.408;10.874;2024-02-21T07:29:45;100679.84;;;19.45;42.91
80781;BME280;70341;56.408;10.874;2024-02-21T07:32:15;100679.45;;;19.45;42.94
80781;BME280;70341;56.408;10.874;2024-02-21T07:34:43;100684.13;;;19.46;43.03
80781;BME280;70341;56.408;10.874;2024-02-21T07:37:13;100693.61;;;19.47;42.95
80781;BME280;70341;56.408;10.874;2024-02-21T07:39:42;100693.58;;;19.47;42.90
80781;BME280;70341;56.408;10.874;2024-02-21T07:42:12;100691.34;;;19.48;42.94
80781;BME280;70341;56.408;10.874;2024-02-21T07:44:40;100689.30;;;19.49;43.19
80781;BME280;70341;56.408;10.874;2024-02-21T07:47:10;100694.30;;;19.49;43.18
80781;BME280;70341;56.408;10.874;2024-02-21T07:49:44;100701.54;;;19.51;43.14
80781;BME280;70341;56.408;10.874;2024-02-21T07:52:14;100696.20;;;19.53;43.04
80781;BME280;70341;56.408;10.874;2024-02-21T07:54:43;100696.66;;;19.54;43.01
80781;BME280;70341;56.408;10.874;2024-02-21T07:57:12;100700.73;;;19.55;42.90
80781;BME280;70341;56.408;10.874;2024-02-21T07:59:41;100700.77;;;19.57;42.86
80781;BME280;70341;56.408;10.874;2024-02-21T08:02:11;100693.08;;;19.58;42.90
80781;BME280;70341;56.408;10.874;2024-02-21T08:04:40;100699.02;;;19.61;42.82
80781;BME280;70341;56.408;10.874;2024-02-21T08:07:10;100695.21;;;19.63;42.77
80781;BME280;70341;56.408;10.874;2024-02-21T08:09:40;100701.80;;;19.67;42.79
80781;BME280;70341;56.408;10.874;2024-02-21T08:12:09;100717.88;;;19.71;42.71
80781;BME280;70341;56.408;10.874;2024-02-21T08:14:38;100734.13;;;19.75;42.67
80781;BME280;70341;56.408;10.874;2024-02-21T08:17:08;100734.58;;;19.78;42.54
80781;BME280;70341;56.408;10.874;2024-02-21T08:19:37;100731.14;;;19.81;42.35
80781;BME280;70341;56.408;10.874;2024-02-21T08:22:06;100742.64;;;19.84;42.32
80781;BME280;70341;56.408;10.874;2024-02-21T08:24:35;100750.73;;;19.86;42.25
80781;BME280;70341;56.408;10.874;2024-02-21T08:27:04;100764.99;;;19.89;42.16
80781;BME280;70341;56.408;10.874;2024-02-21T08:29:33;100770.41;;;19.91;42.15
80781;BME280;70341;56.408;10.874;2024-02-21T08:32:04;100772.23;;;19.93;42.12
80781;BME280;70341;56.408;10.874;2024-02-21T08:34:32;100778.62;;;19.96;42.16
80781;BME280;70341;56.408;10.874;2024-02-21T08:37:02;100785.19;;;20.00;42.11
80781;BME280;70341;56.408;10.874;2024-02-21T08:39:30;100799.23;;;20.02;42.09
80781;BME280;70341;56.408;10.874;2024-02-21T08:42:00;100796.33;;;20.05;42.02
80781;BME280;70341;56.408;10.874;2024-02-21T08:44:29;100802.53;;;20.07;41.91
80781;BME280;70341;56.408;10.874;2024-02-21T08:46:59;100798.58;;;20.07;41.95
80781;BME280;70341;56.408;10.874;2024-02-21T08:49:28;100797.41;;;20.08;41.84
80781;BME280;70341;56.408;10.874;2024-02-21T08:52:03;100795.13;;;20.09;41.87
80781;BME280;70341;56.408;10.874;2024-02-21T08:54:32;100796.91;;;20.12;41.83
80781;BME280;70341;56.408;10.874;2024-02-21T08:57:02;100796.72;;;20.14;41.81
80781;BME280;70341;56.408;10.874;2024-02-21T08:59:31;100801.30;;;20.17;41.82
80781;BME280;70341;56.408;10.874;2024-02-21T09:02:00;100798.02;;;20.20;41.75
80781;BME280;70341;56.408;10.874;2024-02-21T09:04:29;100804.70;;;20.27;41.78
80781;BME280;70341;56.408;10.874;2024-02-21T09:07:00;100811.23;;;20.34;41.80
80781;BME280;70341;56.408;10.874;2024-02-21T09:09:28;100819.32;;;20.41;41.73
80781;BME280;70341;56.408;10.874;2024-02-21T09:11:59;100832.45;;;20.48;41.62
80781;BME280;70341;56.408;10.874;2024-02-21T09:14:27;100832.83;;;20.55;41.48
80781;BME280;70341;56.408;10.874;2024-02-21T09:16:57;100836.73;;;20.60;41.25
80781;BME280;70341;56.408;10.874;2024-02-21T09:19:25;100850.49;;;20.65;41.16
80781;BME280;70341;56.408;10.874;2024-02-21T09:21:55;100858.66;;;20.68;40.91
80781;BME280;70341;56.408;10.874;2024-02-21T09:24:24;100850.77;;;20.74;41.01
80781;BME280;70341;56.408;10.874;2024-02-21T09:26:53;100840.27;;;20.81;40.97
80781;BME280;70341;56.408;10.874;2024-02-21T09:29:22;100839.06;;;20.91;40.94
80781;BME280;70341;56.408;10.874;2024-02-21T09:31:56;100834.06;;;21.04;40.85
80781;BME280;70341;56.408;10.874;2024-02-21T09:34:24;100831.48;;;21.15;40.59
80781;BME280;70341;56.408;10.874;2024-02-21T09:36:54;100831.40;;;21.27;40.54
80781;BME280;70341;56.408;10.874;2024-02-21T09:39:22;100833.93;;;21.40;40.40
80781;BME280;70341;56.408;10.874;2024-02-21T09:41:59;100836.30;;;21.53;40.22
80781;BME280;70341;56.408;10.874;2024-02-21T09:44:37;100830.72;;;21.70;40.02
80781;BME280;70341;56.408;10.874;2024-02-21T09:47:19;100836.62;;;21.81;39.67
80781;BME280;70341;56.408;10.874;2024-02-21T09:49:52;100840.77;;;21.94;39.47
80781;BME280;70341;56.408;10.874;2024-02-21T09:52:20;100848.83;;;22.08;39.26
80781;BME280;70341;56.408;10.874;2024-02-21T09:54:51;100849.98;;;22.20;39.14
80781;BME280;70341;56.408;10.874;2024-02-21T09:57:22;100856.10;;;22.34;38.92
80781;BME280;70341;56.408;10.874;2024-02-21T09:59:52;100848.33;;;22.47;38.58
80781;BME280;70341;56.408;10.874;2024-02-21T10:02:20;100842.42;;;22.58;38.46
80781;BME280;70341;56.408;10.874;2024-02-21T10:04:50;100837.11;;;22.69;37.83
80781;BME280;70341;56.408;10.874;2024-02-21T10:07:19;100831.46;;;22.79;37.82
80781;BME280;70341;56.408;10.874;2024-02-21T10:09:48;100824.11;;;22.89;37.76
80781;BME280;70341;56.408;10.874;2024-02-21T10:12:17;100825.60;;;23.00;37.39
80781;BME280;70341;56.408;10.874;2024-02-21T10:14:46;100819.13;;;23.09;37.47
80781;BME280;70341;56.408;10.874;2024-02-21T10:17:16;100818.32;;;23.18;37.28
80781;BME280;70341;56.408;10.874;2024-02-21T10:19:46;100817.05;;;23.26;36.97
80781;BME280;70341;56.408;10.874;2024-02-21T10:22:15;100833.66;;;23.37;36.89
80781;BME280;70341;56.408;10.874;2024-02-21T10:24:44;100835.95;;;23.45;36.81
80781;BME280;70341;56.408;10.874;2024-02-21T10:27:13;100855.27;;;23.52;36.44
80781;BME280;70341;56.408;10.874;2024-02-21T10:29:49;100853.83;;;23.56;36.39
80781;BME280;70341;56.408;10.874;2024-02-21T10:32:19;100850.02;;;23.62;36.09
80781;BME280;70341;56.408;10.874;2024-02-21T10:34:48;100852.70;;;23.68;36.03
80781;BME280;70341;56.408;10.874;2024-02-21T10:37:17;100855.48;;;23.75;35.95
80781;BME280;70341;56.408;10.874;2024-02-21T10:39:46;100854.80;;;23.83;36.06
80781;BME280;70341;56.408;10.874;2024-02-21T10:42:21;100855.90;;;23.90;35.86
80781;BME280;70341;56.408;10.874;2024-02-21T10:44:53;100855.85;;;23.98;35.80
80781;BME280;70341;56.408;10.874;2024-02-21T10:47:25;100854.84;;;24.07;35.50
80781;BME280;70341;56.408;10.874;2024-02-21T10:50:04;100844.03;;;24.16;35.35
80781;BME280;70341;56.408;10.874;2024-02-21T10:52:51;100837.13;;;24.23;34.94
80781;BME280;70341;56.408;10.874;2024-02-21T10:55:38;100832.86;;;24.32;35.03
80781;BME280;70341;56.408;10.874;2024-02-21T10:58:11;100836.27;;;24.40;34.82
80781;BME280;70341;56.408;10.874;2024-02-21T11:00:40;100831.70;;;24.48;34.76
80781;BME280;70341;56.408;10.874;2024-02-21T11:03:10;100824.98;;;24.54;34.65
80781;BME280;70341;56.408;10.874;2024-02-21T11:05:39;100830.02;;;24.61;34.44
80781;BME280;70341;56.408;10.874;2024-02-21T11:08:10;100824.31;;;24.67;34.50
80781;BME280;70341;56.408;10.874;2024-02-21T11:10:38;100828.98;;;24.74;34.37
80781;BME280;70341;56.408;10.874;2024-02-21T11:13:08;100831.48;;;24.80;34.36
80781;BME280;70341;56.408;10.874;2024-02-21T11:15:37;100834.88;;;24.87;34.33
80781;BME280;70341;56.408;10.874;2024-02-21T11:18:07;100839.84;;;24.94;34.20
80781;BME280;70341;56.408;10.874;2024-02-21T11:20:37;100838.27;;;25.02;34.23
80781;BME280;70341;56.408;10.874;2024-02-21T11:23:07;100837.45;;;25.08;33.91
80781;BME280;70341;56.408;10.874;2024-02-21T11:25:36;100830.92;;;25.15;33.87
80781;BME280;70341;56.408;10.874;2024-02-21T11:28:06;100827.95;;;25.21;33.72
80781;BME280;70341;56.408;10.874;2024-02-21T11:30:37;100824.35;;;25.28;33.75
80781;BME280;70341;56.408;10.874;2024-02-21T11:33:07;100823.67;;;25.33;33.47
80781;BME280;70341;56.408;10.874;2024-02-21T11:35:36;100824.59;;;25.38;33.48
80781;BME280;70341;56.408;10.874;2024-02-21T11:38:13;100819.73;;;25.43;33.49
80781;BME280;70341;56.408;10.874;2024-02-21T11:40:46;100819.39;;;25.48;33.41
80781;BME280;70341;56.408;10.874;2024-02-21T11:43:15;100820.63;;;25.51;33.36
80781;BME280;70341;56.408;10.874;2024-02-21T11:45:45;100825.67;;;25.57;33.15
80781;BME280;70341;56.408;10.874;2024-02-21T11:48:14;100832.90;;;25.62;33.03
80781;BME280;70341;56.408;10.874;2024-02-21T11:50:53;100835.88;;;25.66;32.91
80781;BME280;70341;56.408;10.874;2024-02-21T11:53:23;100832.00;;;25.71;33.01
80781;BME280;70341;56.408;10.874;2024-02-21T11:55:51;100828.10;;;25.75;32.80
80781;BME280;70341;56.408;10.874;2024-02-21T11:58:21;100824.45;;;25.79;32.75
80781;BME280;70341;56.408;10.874;2024-02-21T12:00:50;100835.11;;;25.83;32.57
80781;BME280;70341;56.408;10.874;2024-02-21T12:03:19;100827.83;;;25.86;32.52
80781;BME280;70341;56.408;10.874;2024-02-21T12:05:48;100829.27;;;25.90;32.62
80781;BME280;70341;56.408;10.874;2024-02-21T12:08:18;100829.44;;;25.94;32.48
80781;BME280;70341;56.408;10.874;2024-02-21T12:10:46;100819.35;;;25.98;32.41
80781;BME280;70341;56.408;10.874;2024-02-21T12:13:16;100817.33;;;26.02;32.26
80781;BME280;70341;56.408;10.874;2024-02-21T12:15:47;100828.27;;;26.05;32.24
80781;BME280;70341;56.408;10.874;2024-02-21T12:18:17;100816.12;;;26.08;32.21
80781;BME280;70341;56.408;10.874;2024-02-21T12:20:48;100813.91;;;26.12;32.27
80781;BME280;70341;56.408;10.874;2024-02-21T12:23:18;100812.27;;;26.15;32.20
80781;BME280;70341;56.408;10.874;2024-02-21T12:25:47;100808.45;;;26.19;31.98
80781;BME280;70341;56.408;10.874;2024-02-21T12:28:16;100807.70;;;26.22;31.87
80781;BME280;70341;56.408;10.874;2024-02-21T12:30:45;100800.98;;;26.24;31.84
80781;BME280;70341;56.408;10.874;2024-02-21T12:33:14;100796.14;;;26.25;31.69
80781;BME280;70341;56.408;10.874;2024-02-21T12:35:43;100800.75;;;26.26;31.83
80781;BME280;70341;56.408;10.874;2024-02-21T12:38:13;100811.25;;;26.27;31.74
80781;BME280;70341;56.408;10.874;2024-02-21T12:40:41;100812.98;;;26.27;31.65
80781;BME280;70341;56.408;10.874;2024-02-21T12:43:11;100816.10;;;26.27;31.61
80781;BME280;70341;56.408;10.874;2024-02-21T12:45:40;100821.02;;;26.26;31.71
80781;BME280;70341;56.408;10.874;2024-02-21T12:48:09;100818.17;;;26.24;31.64
80781;BME280;70341;56.408;10.874;2024-02-21T12:50:38;100812.52;;;26.22;31.66
80781;BME280;70341;56.408;10.874;2024-02-21T12:53:07;100809.06;;;26.20;31.57